createdAt,value
2017-06-09T00:01:29.266Z,101125.72
2017-06-09T00:03:55.583Z,101121.68
2017-06-09T00:06:21.832Z,101124.65
2017-06-09T00:08:48.147Z,101133.27
2017-06-09T00:11:14.497Z,101143.86
2017-06-09T00:13:41.087Z,101141.42
2017-06-09T00:17:36.047Z,101129.50
2017-06-09T00:20:02.331Z,101128.61
2017-06-09T00:22:28.642Z,101122.05
2017-06-09T00:24:54.899Z,101118.95
2017-06-09T00:27:21.147Z,101126.64
2017-06-09T00:29:47.458Z,101128.80
2017-06-09T00:32:13.690Z,101121.87
2017-06-09T00:34:39.987Z,101123.56
2017-06-09T00:37:06.337Z,101125.63
2017-06-09T00:39:32.570Z,101125.09
2017-06-09T00:41:58.835Z,101121.19
2017-06-09T00:44:25.123Z,101118.20
2017-06-09T00:46:51.463Z,101114.23
2017-06-09T00:49:17.687Z,101109.16
2017-06-09T00:51:44.419Z,101101.28
2017-06-09T00:54:10.670Z,101105.56
2017-06-09T00:56:36.952Z,101098.94
2017-06-09T00:59:03.203Z,101088.91
2017-06-09T01:01:29.448Z,101090.13
2017-06-09T01:03:55.713Z,101089.80
2017-06-09T01:06:21.939Z,101091.95
2017-06-09T01:08:48.179Z,101086.65
2017-06-09T01:11:14.525Z,101076.73
2017-06-09T01:13:40.778Z,101091.17
2017-06-09T01:17:38.705Z,101091.95
2017-06-09T01:20:05.713Z,101094.16
2017-06-09T01:22:32.048Z,101097.42
2017-06-09T01:24:58.337Z,101112.42
2017-06-09T01:27:25.356Z,101120.36
2017-06-09T01:29:51.921Z,101180.14
2017-06-09T01:32:18.184Z,101200.73
2017-06-09T01:34:44.475Z,101213.63
2017-06-09T01:37:10.770Z,101218.80
2017-06-09T01:39:37.067Z,101218.16
2017-06-09T01:42:03.430Z,101217.09
2017-06-09T01:44:29.698Z,101213.37
2017-06-09T01:46:55.959Z,101212.41
2017-06-09T01:49:22.284Z,101203.89
2017-06-09T01:51:48.633Z,101187.52
2017-06-09T01:54:14.903Z,101134.88
2017-06-09T01:56:41.149Z,101116.89
2017-06-09T01:59:07.441Z,101077.35
2017-06-09T02:01:33.766Z,101028.74
2017-06-09T02:04:00.044Z,101046.77
2017-06-09T02:06:26.267Z,101039.91
2017-06-09T02:08:52.531Z,101037.15
2017-06-09T02:11:18.788Z,101041.92
2017-06-09T02:13:45.075Z,101045.58
2017-06-09T02:17:37.831Z,101041.58
2017-06-09T02:20:04.115Z,101043.63
2017-06-09T02:22:30.497Z,101063.35
2017-06-09T02:24:56.730Z,101067.87
2017-06-09T02:27:22.995Z,101057.47
2017-06-09T02:29:49.231Z,101057.59
2017-06-09T02:32:15.484Z,101059.94
2017-06-09T02:34:41.737Z,101069.55
2017-06-09T02:37:07.989Z,101067.77
2017-06-09T02:39:34.451Z,101078.86
2017-06-09T02:42:00.710Z,101076.97
2017-06-09T02:44:26.955Z,101081.05
2017-06-09T02:46:53.539Z,101087.05
2017-06-09T02:49:19.772Z,101083.28
2017-06-09T02:51:46.027Z,101076.94
2017-06-09T02:54:12.279Z,101080.16
2017-06-09T02:56:38.536Z,101084.05
2017-06-09T02:59:04.894Z,101071.53
2017-06-09T03:01:31.155Z,101071.53
2017-06-09T03:03:57.431Z,101054.41
2017-06-09T03:06:23.670Z,101052.48
2017-06-09T03:08:49.919Z,101060.08
2017-06-09T03:11:16.175Z,101055.31
2017-06-09T03:13:42.508Z,101046.48
2017-06-09T03:17:37.028Z,101029.09
2017-06-09T03:20:03.287Z,101024.88
2017-06-09T03:25:02.566Z,101027.58
2017-06-09T03:27:28.906Z,101052.42
2017-06-09T03:29:55.151Z,101057.06
2017-06-09T03:32:27.319Z,101066.12
2017-06-09T03:34:53.567Z,101044.53
2017-06-09T03:37:19.824Z,101043.89
2017-06-09T03:39:46.143Z,101043.71
2017-06-09T03:42:12.398Z,101041.31
2017-06-09T03:44:38.707Z,101042.31
2017-06-09T03:47:04.970Z,101029.70
2017-06-09T03:49:31.233Z,101023.86
2017-06-09T03:51:57.552Z,101006.78
2017-06-09T03:54:23.882Z,101000.66
2017-06-09T03:56:50.175Z,100996.44
2017-06-09T03:59:16.508Z,100988.56
2017-06-09T04:01:42.747Z,100988.34
2017-06-09T04:04:09.004Z,100988.74
2017-06-09T04:06:35.257Z,100968.48
2017-06-09T04:09:01.535Z,100964.50
2017-06-09T04:11:27.875Z,100974.59
2017-06-09T04:13:54.131Z,100979.06
2017-06-09T04:17:36.887Z,100968.18
2017-06-09T04:20:03.139Z,100962.26
2017-06-09T04:22:29.503Z,100974.34
2017-06-09T04:24:55.803Z,100972.84
2017-06-09T04:27:22.059Z,100965.64
2017-06-09T04:29:48.317Z,100984.95
2017-06-09T04:32:14.557Z,101002.04
2017-06-09T04:34:41.104Z,101025.47
2017-06-09T04:37:07.392Z,101105.22
2017-06-09T04:39:33.681Z,101102.27
2017-06-09T04:41:59.918Z,101103.40
2017-06-09T04:44:26.307Z,101095.39
2017-06-09T04:46:52.560Z,101096.95
2017-06-09T04:49:18.907Z,101071.42
2017-06-09T04:51:45.137Z,101080.05
2017-06-09T04:54:11.468Z,101083.03
2017-06-09T04:56:37.721Z,101079.80
2017-06-09T04:59:04.011Z,101099.44
2017-06-09T05:01:30.324Z,101106.92
2017-06-09T05:03:56.578Z,101151.84
2017-06-09T05:06:22.819Z,101155.03
2017-06-09T05:08:49.078Z,101136.20
2017-06-09T05:11:15.413Z,101122.87
2017-06-09T05:13:41.671Z,101119.04
2017-06-09T05:17:38.388Z,101137.23
2017-06-09T05:20:04.635Z,101132.72
2017-06-09T05:22:35.911Z,101133.97
2017-06-09T05:25:02.168Z,101120.56
2017-06-09T05:27:28.437Z,101123.08
2017-06-09T05:29:54.724Z,101099.74
2017-06-09T05:32:20.979Z,101086.64
2017-06-09T05:34:47.225Z,101080.50
2017-06-09T05:37:13.565Z,101086.73
2017-06-09T05:39:39.809Z,101101.78
2017-06-09T05:42:06.050Z,101096.64
2017-06-09T05:44:32.312Z,101095.05
2017-06-09T05:46:58.574Z,101090.36
2017-06-09T05:49:24.881Z,101080.23
2017-06-09T05:51:51.196Z,101082.30
2017-06-09T05:54:17.542Z,101112.27
2017-06-09T05:56:43.819Z,101136.67
2017-06-09T05:59:10.067Z,101147.44
2017-06-09T06:01:36.406Z,101138.50
2017-06-09T06:04:02.648Z,101123.53
2017-06-09T06:06:28.883Z,101087.82
2017-06-09T06:08:55.200Z,101082.88
2017-06-09T06:11:21.433Z,101078.94
2017-06-09T06:13:47.741Z,101074.89
2017-06-09T06:17:36.169Z,101077.73
2017-06-09T06:20:02.621Z,101061.77
2017-06-09T06:22:28.873Z,101051.70
2017-06-09T06:24:55.109Z,101033.91
2017-06-09T06:27:21.346Z,101026.06
2017-06-09T06:29:47.582Z,101030.13
2017-06-09T06:32:13.909Z,101022.61
2017-06-09T06:34:40.142Z,101022.16
2017-06-09T06:37:06.402Z,101029.26
2017-06-09T06:39:32.687Z,101038.95
2017-06-09T06:41:58.922Z,101046.05
2017-06-09T06:44:25.238Z,101047.98
2017-06-09T06:46:51.504Z,101053.48
2017-06-09T06:49:17.799Z,101062.62
2017-06-09T06:51:44.043Z,101077.79
2017-06-09T06:54:10.390Z,101074.92
2017-06-09T06:56:36.628Z,101090.03
2017-06-09T06:59:02.866Z,101092.53
2017-06-09T07:01:29.230Z,101083.34
2017-06-09T07:03:55.459Z,101081.76
2017-06-09T07:06:21.760Z,101087.06
2017-06-09T07:08:48.483Z,101099.72
2017-06-09T07:11:14.741Z,101102.30
2017-06-09T07:13:40.968Z,101100.06
2017-06-09T07:17:36.807Z,101106.55
2017-06-09T07:20:03.059Z,101102.01
2017-06-09T07:22:29.309Z,101100.80
2017-06-09T07:24:55.538Z,101110.23
2017-06-09T07:27:21.810Z,101123.45
2017-06-09T07:29:48.121Z,101112.02
2017-06-09T07:32:14.574Z,101117.41
2017-06-09T07:34:40.866Z,101116.55
2017-06-09T07:37:07.130Z,101114.57
2017-06-09T07:39:33.355Z,101113.25
2017-06-09T07:41:59.684Z,101123.80
2017-06-09T07:44:26.008Z,101121.89
2017-06-09T07:46:52.268Z,101132.98
2017-06-09T07:49:18.804Z,101133.23
2017-06-09T07:51:45.052Z,101128.74
2017-06-09T07:54:11.309Z,101129.88
2017-06-09T07:56:37.547Z,101123.99
2017-06-09T07:59:03.846Z,101123.72
2017-06-09T08:01:30.087Z,101126.77
2017-06-09T08:03:56.359Z,101132.13
2017-06-09T08:06:22.691Z,101141.58
2017-06-09T08:08:48.998Z,101148.20
2017-06-09T08:11:15.223Z,101153.55
2017-06-09T08:13:41.463Z,101159.19
2017-06-09T08:17:37.716Z,101159.27
2017-06-09T08:20:03.949Z,101164.42
2017-06-09T08:22:30.195Z,101162.00
2017-06-09T08:24:56.443Z,101179.55
2017-06-09T08:27:22.745Z,101175.89
2017-06-09T08:29:49.034Z,101175.50
2017-06-09T08:32:15.270Z,101189.08
2017-06-09T08:34:41.529Z,101198.70
2017-06-09T08:37:07.853Z,101198.45
2017-06-09T08:39:34.116Z,101200.85
2017-06-09T08:42:00.393Z,101202.02
2017-06-09T08:44:26.659Z,101204.33
2017-06-09T08:46:52.934Z,101212.77
2017-06-09T08:49:19.180Z,101216.64
2017-06-09T08:51:45.411Z,101221.23
2017-06-09T08:54:11.659Z,101217.33
2017-06-09T08:56:38.060Z,101219.70
2017-06-09T08:59:04.283Z,101222.64
2017-06-09T09:01:30.546Z,101221.72
2017-06-09T09:03:56.759Z,101229.04
2017-06-09T09:06:22.993Z,101215.00
2017-06-09T09:08:49.341Z,101212.49
2017-06-09T09:11:15.574Z,101220.89
2017-06-09T09:13:41.880Z,101214.98
2017-06-09T09:17:37.693Z,101223.02
2017-06-09T09:20:03.931Z,101230.73
2017-06-09T09:22:30.171Z,101231.62
2017-06-09T09:24:56.421Z,101227.59
2017-06-09T09:27:22.721Z,101232.84
2017-06-09T09:29:49.552Z,101229.45
2017-06-09T09:32:15.841Z,101230.87
2017-06-09T09:34:42.211Z,101238.44
2017-06-09T09:37:08.454Z,101240.86
2017-06-09T09:39:34.749Z,101253.88
2017-06-09T09:42:01.019Z,101248.16
2017-06-09T09:44:27.256Z,101245.52
2017-06-09T09:46:53.600Z,101249.97
2017-06-09T09:49:20.063Z,101249.16
2017-06-09T09:51:46.298Z,101255.13
2017-06-09T09:54:12.534Z,101261.09
2017-06-09T09:56:38.779Z,101274.89
2017-06-09T09:59:05.129Z,101275.94
2017-06-09T10:01:31.401Z,101279.59
2017-06-09T10:03:57.659Z,101273.94
2017-06-09T10:06:23.939Z,101273.95
2017-06-09T10:08:50.248Z,101279.50
2017-06-09T10:11:16.509Z,101276.00
2017-06-09T10:13:42.809Z,101280.94
2017-06-09T10:17:37.408Z,101289.19
2017-06-09T10:20:03.655Z,101295.72
2017-06-09T10:22:29.910Z,101300.48
2017-06-09T10:24:56.156Z,101300.07
2017-06-09T10:27:22.416Z,101310.00
2017-06-09T10:29:48.764Z,101297.17
2017-06-09T10:32:15.016Z,101296.89
2017-06-09T10:34:41.247Z,101291.20
2017-06-09T10:37:07.488Z,101317.82
2017-06-09T10:39:33.718Z,101313.60
2017-06-09T10:42:00.071Z,101319.69
2017-06-09T10:44:26.331Z,101327.30
2017-06-09T10:46:52.587Z,101325.97
2017-06-09T10:49:18.833Z,101331.41
2017-06-09T10:51:45.098Z,101329.27
2017-06-09T10:54:11.322Z,101329.83
2017-06-09T10:56:38.495Z,101334.14
2017-06-09T10:59:04.894Z,101336.93
2017-06-09T11:01:31.133Z,101341.89
2017-06-09T11:03:57.367Z,101349.36
2017-06-09T11:06:23.672Z,101348.08
2017-06-09T11:08:49.972Z,101358.89
2017-06-09T11:11:16.336Z,101350.84
2017-06-09T11:13:42.600Z,101353.24
2017-06-09T11:17:36.239Z,101364.98
2017-06-09T11:20:02.539Z,101365.98
2017-06-09T11:22:28.819Z,101386.44
2017-06-09T11:24:55.235Z,101388.16
2017-06-09T11:27:21.911Z,101394.77
2017-06-09T11:29:48.228Z,101381.06
2017-06-09T11:32:15.267Z,101394.58
2017-06-09T11:34:41.615Z,101394.34
2017-06-09T11:37:07.927Z,101396.34
2017-06-09T11:39:34.242Z,101395.87
2017-06-09T11:42:00.631Z,101411.80
2017-06-09T11:44:26.926Z,101406.98
2017-06-09T11:46:53.252Z,101400.98
2017-06-09T11:49:19.627Z,101403.98
2017-06-09T11:51:45.981Z,101414.27
2017-06-09T11:54:12.306Z,101403.84
2017-06-09T11:56:38.584Z,101405.87
2017-06-09T11:59:05.024Z,101406.19
2017-06-09T12:01:31.305Z,101419.66
2017-06-09T12:03:57.606Z,101427.38
2017-06-09T12:06:23.859Z,101421.98
2017-06-09T12:08:50.123Z,101425.34
2017-06-09T12:11:16.391Z,101428.40
2017-06-09T12:13:42.638Z,101429.94
2017-06-09T12:17:37.498Z,101436.38
2017-06-09T12:20:03.786Z,101432.94
2017-06-09T12:22:30.043Z,101438.54
2017-06-09T12:24:56.281Z,101447.09
2017-06-09T12:27:22.517Z,101439.66
2017-06-09T12:29:48.851Z,101445.25
2017-06-09T12:32:15.193Z,101442.47
2017-06-09T12:34:41.434Z,101448.19
2017-06-09T12:37:07.703Z,101457.78
2017-06-09T12:39:33.999Z,101459.09
2017-06-09T12:42:00.294Z,101466.56
2017-06-09T12:44:26.622Z,101463.05
2017-06-09T12:46:52.895Z,101462.33
2017-06-09T12:49:19.174Z,101471.75
2017-06-09T12:51:45.418Z,101474.02
2017-06-09T12:54:11.671Z,101482.09
2017-06-09T12:56:38.009Z,101481.70
2017-06-09T12:59:04.387Z,101476.88
2017-06-09T13:01:30.664Z,101480.26
2017-06-09T13:03:57.036Z,101484.67
2017-06-09T13:06:24.023Z,101487.58
2017-06-09T13:08:50.304Z,101492.56
2017-06-09T13:11:17.437Z,101489.55
2017-06-09T13:13:43.719Z,101490.73
2017-06-09T13:17:36.818Z,101488.31
2017-06-09T13:20:03.093Z,101484.72
2017-06-09T13:22:36.329Z,101494.02
2017-06-09T13:25:02.627Z,101497.72
2017-06-09T13:27:28.952Z,101505.19
2017-06-09T13:29:55.210Z,101501.62
2017-06-09T13:32:21.471Z,101503.61
2017-06-09T13:34:47.797Z,101503.66
2017-06-09T13:37:14.107Z,101506.69
2017-06-09T13:39:40.543Z,101514.03
2017-06-09T13:42:06.837Z,101519.08
2017-06-09T13:44:33.135Z,101515.86
2017-06-09T13:47:00.136Z,101515.91
2017-06-09T13:49:26.417Z,101512.55
2017-06-09T13:51:53.448Z,101519.88
2017-06-09T13:54:19.727Z,101527.12
2017-06-09T13:56:46.079Z,101523.05
2017-06-09T13:59:12.411Z,101530.55
2017-06-09T14:01:38.675Z,101532.64
2017-06-09T14:04:05.667Z,101531.53
2017-06-09T14:06:31.925Z,101536.45
2017-06-09T14:08:58.223Z,101543.11
2017-06-09T14:11:24.556Z,101544.99
2017-06-09T14:13:50.820Z,101547.56
2017-06-09T14:17:38.162Z,101540.94
2017-06-09T14:20:04.426Z,101547.28
2017-06-09T14:22:30.785Z,101548.45
2017-06-09T14:24:57.059Z,101546.72
2017-06-09T14:27:24.058Z,101540.10
2017-06-09T14:29:50.320Z,101541.31
2017-06-09T14:32:16.589Z,101548.69
2017-06-09T15:17:36.132Z,101593.55
2017-06-09T15:20:02.402Z,101592.39
2017-06-09T15:22:28.703Z,101588.17
2017-06-09T15:24:54.998Z,101594.31
2017-06-09T15:30:29.288Z,101587.13
2017-06-09T15:32:55.570Z,101583.94
2017-06-09T15:35:21.830Z,101583.84
2017-06-09T15:37:48.217Z,101592.95
2017-06-09T15:40:14.493Z,101593.42
2017-06-09T15:42:40.743Z,101597.34
2017-06-09T15:45:07.000Z,101595.75
2017-06-09T15:47:33.243Z,101604.95
2017-06-09T15:50:00.410Z,101609.08
2017-06-09T15:52:26.683Z,101608.02
2017-06-09T15:54:52.931Z,101616.95
2017-06-09T15:57:19.175Z,101601.19
2017-06-09T15:59:45.424Z,101596.63
2017-06-09T16:02:11.853Z,101597.33
2017-06-09T16:04:38.179Z,101598.74
2017-06-09T16:07:04.440Z,101601.78
2017-06-09T16:09:30.716Z,101600.98
2017-06-09T16:11:57.737Z,101604.13
2017-06-09T16:14:24.071Z,101607.52
2017-06-09T16:17:37.428Z,101606.22
2017-06-09T16:20:03.819Z,101599.66
2017-06-09T16:22:30.044Z,101603.39
2017-06-09T16:24:56.360Z,101599.55
2017-06-09T16:27:22.591Z,101601.95
2017-06-09T16:29:49.047Z,101606.30
2017-06-09T16:32:15.316Z,101602.94
2017-06-09T16:34:41.562Z,101602.05
2017-06-09T16:37:07.817Z,101602.65
2017-06-09T16:39:34.246Z,101607.30
2017-06-09T16:42:00.503Z,101608.55
2017-06-09T16:44:26.812Z,101619.64
2017-06-09T16:46:53.115Z,101619.32
2017-06-09T16:49:19.375Z,101615.74
2017-06-09T16:51:45.651Z,101627.58
2017-06-09T16:54:11.898Z,101628.83
2017-06-09T16:56:38.159Z,101637.33
2017-06-09T16:59:04.505Z,101634.27
2017-06-09T17:01:30.846Z,101630.93
2017-06-09T17:03:57.116Z,101635.98
2017-06-09T17:17:37.975Z,101663.33
2017-06-09T17:20:04.243Z,101664.13
2017-06-09T17:22:30.524Z,101666.19
2017-06-09T17:24:56.783Z,101662.57
2017-06-09T17:27:23.042Z,101661.66
2017-06-09T17:29:49.373Z,101663.84
2017-06-09T17:32:15.633Z,101671.63
2017-06-09T17:34:41.879Z,101662.77
2017-06-09T17:37:08.163Z,101665.84
2017-06-09T17:39:34.476Z,101665.59
2017-06-09T17:42:00.775Z,101658.75
2017-06-09T17:44:27.048Z,101664.08
2017-06-09T17:46:53.348Z,101667.42
2017-06-09T17:49:19.803Z,101674.88
2017-06-09T17:51:46.104Z,101680.75
2017-06-09T17:54:12.365Z,101677.91
2017-06-09T17:56:38.656Z,101676.23
2017-06-09T17:59:04.976Z,101697.27
2017-06-09T18:01:31.331Z,101688.88
2017-06-09T18:03:57.636Z,101693.32
2017-06-09T18:06:23.973Z,101692.51
2017-06-09T18:08:50.347Z,101697.66
2017-06-09T18:11:16.615Z,101700.56
2017-06-09T18:13:42.970Z,101698.80
2017-06-09T18:17:37.079Z,101698.47
2017-06-09T18:20:03.672Z,101695.56
2017-06-09T18:22:30.007Z,101693.61
2017-06-09T18:24:56.274Z,101699.23
2017-06-09T18:27:22.531Z,101710.41
2017-06-09T18:29:48.803Z,101708.10
2017-06-09T18:32:15.079Z,101720.48
2017-06-09T18:34:41.449Z,101718.75
2017-06-09T18:37:07.806Z,101717.20
2017-06-09T18:39:34.244Z,101720.75
2017-06-09T18:42:00.605Z,101720.92
2017-06-09T18:44:26.908Z,101722.54
2017-06-09T18:46:53.214Z,101723.47
2017-06-09T18:49:19.520Z,101731.29
2017-06-09T18:51:45.810Z,101727.75
2017-06-09T18:54:12.501Z,101722.05
2017-06-09T18:56:38.781Z,101722.66
2017-06-09T18:59:05.062Z,101726.52
2017-06-09T19:01:31.315Z,101729.67
2017-06-09T19:03:57.586Z,101726.38
2017-06-09T19:06:24.014Z,101735.53
2017-06-09T19:08:50.278Z,101737.06
2017-06-09T19:11:16.527Z,101742.99
2017-06-09T19:13:42.893Z,101739.59
2017-06-09T19:17:37.346Z,101737.59
2017-06-09T19:20:03.610Z,101743.76
2017-06-09T19:22:29.891Z,101745.98
2017-06-09T19:24:56.153Z,101748.37
2017-06-09T19:27:22.670Z,101750.05
2017-06-09T19:29:48.988Z,101756.90
2017-06-09T19:32:15.259Z,101756.38
2017-06-09T19:34:41.574Z,101763.80
2017-06-09T19:37:07.826Z,101770.92
2017-06-09T19:39:34.075Z,101775.03
2017-06-09T19:42:00.481Z,101776.54
2017-06-09T19:44:26.751Z,101777.39
2017-06-09T19:46:53.082Z,101777.86
2017-06-09T19:49:19.343Z,101787.02
2017-06-09T19:51:45.612Z,101784.55
2017-06-09T19:54:11.864Z,101793.84
2017-06-09T19:56:38.227Z,101797.59
2017-06-09T19:59:04.455Z,101801.12
2017-06-09T20:01:30.728Z,101802.09
2017-06-09T20:03:57.028Z,101806.01
2017-06-09T20:06:24.994Z,101807.05
2017-06-09T20:08:51.372Z,101810.86
2017-06-09T20:11:19.868Z,101813.99
2017-06-09T20:13:47.196Z,101816.02
2017-06-09T20:17:37.108Z,101830.08
2017-06-09T20:20:03.400Z,101827.80
2017-06-09T20:22:29.709Z,101834.36
2017-06-09T20:24:56.018Z,101817.47
2017-06-09T20:27:22.272Z,101824.27
2017-06-09T20:29:48.536Z,101828.63
2017-06-09T20:32:14.810Z,101829.31
2017-06-09T20:34:41.075Z,101841.84
2017-06-09T20:37:07.344Z,101833.87
2017-06-09T20:39:33.671Z,101834.26
2017-06-09T20:42:00.928Z,101840.48
2017-06-09T20:44:27.354Z,101850.11
2017-06-09T20:46:53.624Z,101844.05
2017-06-09T20:49:19.947Z,101849.58
2017-06-09T20:51:46.296Z,101855.35
2017-06-09T20:54:12.592Z,101851.46
2017-06-09T20:56:38.967Z,101855.77
2017-06-09T20:59:05.422Z,101858.16
2017-06-09T21:01:31.698Z,101862.74
2017-06-09T21:03:58.092Z,101861.03
2017-06-09T21:06:24.417Z,101861.38
2017-06-09T21:11:57.404Z,101861.17
2017-06-09T21:14:23.981Z,101863.80
2017-06-09T21:17:37.237Z,101869.12
2017-06-09T21:20:03.580Z,101868.91
2017-06-09T21:22:29.831Z,101868.42
2017-06-09T21:24:56.059Z,101865.39
2017-06-09T21:27:22.303Z,101875.13
2017-06-09T21:29:48.566Z,101873.72
2017-06-09T21:32:14.812Z,101876.97
2017-06-09T21:34:41.102Z,101876.98
2017-06-09T21:37:07.456Z,101885.09
2017-06-09T21:39:33.710Z,101879.88
2017-06-09T21:41:59.952Z,101881.95
2017-06-09T21:44:26.191Z,101879.56
2017-06-09T21:46:52.439Z,101883.16
2017-06-09T21:49:18.689Z,101886.11
2017-06-09T21:51:44.951Z,101888.05
2017-06-09T21:54:11.275Z,101894.47
2017-06-09T22:00:08.236Z,101897.34
2017-06-09T22:02:34.502Z,101892.80
2017-06-09T22:05:00.899Z,101893.34
2017-06-09T22:07:27.184Z,101892.28
2017-06-09T22:09:53.677Z,101900.16
2017-06-09T22:12:20.069Z,101894.00
2017-06-09T22:24:05.986Z,101892.02
2017-06-09T22:26:32.743Z,101892.10
2017-06-09T22:28:59.080Z,101898.79
2017-06-09T22:31:25.372Z,101893.34
2017-06-09T22:33:51.681Z,101899.84
2017-06-09T22:36:17.980Z,101900.23
2017-06-09T22:38:44.300Z,101892.06
2017-06-09T22:41:10.871Z,101900.16
2017-06-09T22:43:37.128Z,101899.92
2017-06-09T22:46:03.397Z,101898.03
2017-06-09T22:48:29.668Z,101902.53
2017-06-09T22:50:55.954Z,101905.20
2017-06-09T22:53:22.222Z,101902.36
2017-06-09T22:55:48.548Z,101901.87
2017-06-09T22:58:14.787Z,101911.28
2017-06-09T23:00:41.027Z,101905.33
2017-06-09T23:03:07.270Z,101902.48
2017-06-09T23:05:33.580Z,101912.59
2017-06-09T23:07:59.870Z,101911.41
2017-06-09T23:10:26.172Z,101900.86
2017-06-09T23:12:52.540Z,101908.70
2017-06-09T23:17:37.769Z,101903.52
2017-06-09T23:20:04.065Z,101904.33
2017-06-09T23:22:30.352Z,101907.33
2017-06-09T23:24:56.690Z,101911.73
2017-06-09T23:27:22.969Z,101911.86
2017-06-09T23:29:55.268Z,101920.28
2017-06-09T23:32:21.539Z,101920.13
2017-06-09T23:34:47.807Z,101922.59
2017-06-09T23:37:14.164Z,101920.06
2017-06-09T23:39:40.400Z,101917.57
2017-06-09T23:42:06.672Z,101916.15
2017-06-09T23:44:32.900Z,101921.74
2017-06-09T23:46:59.271Z,101914.50
2017-06-09T23:49:25.512Z,101915.06
2017-06-09T23:51:51.761Z,101921.19
2017-06-09T23:54:18.052Z,101920.84
2017-06-09T23:56:44.291Z,101928.16
2017-06-09T23:59:11.102Z,101931.43
